Terminal Aerodrome Forecast
Issued by NWS

Home | Current Version | Previous Version | Graphics & Text | Print | Product List | Glossary On
Versions: 1 2 3 4 5 6 7 8 9 10 11 12 13 14 15
722
FTUS43 KGRB 280924 AAA
TAFCWA
TAF AMD
KCWA 280924Z 2809/2906 15006KT 4SM BR BKN004 OVC010
      TEMPO 2809/2812 2SM -SHRA BR
     FM281500 17009KT P6SM VCSH OVC008
     FM281700 18010KT P6SM VCSH BKN015
     FM281900 18011KT P6SM VCSH BKN030
     FM290000 19009KT P6SM SHRA BKN040 BKN070
     FM290300 18005KT P6SM SHRA BKN040 BKN070
      AMD LTD TO CLD VIS AND WIND TIL 281100=

USA.gov is the U.S. government's official web portal to all federal, state and local government web resources and services.